sensor_id;sensor_type;location;lat;lon;timestamp;temperature;humidity
77052;SHT30;65980;44.898;8.602;2023-06-22T00:02:47;23.66;50.53
77052;SHT30;65980;44.898;8.602;2023-06-22T00:05:55;23.72;51.19
77052;SHT30;65980;44.898;8.602;2023-06-22T00:09:04;23.85;50.57
77052;SHT30;65980;44.898;8.602;2023-06-22T00:12:13;23.79;51.15
77052;SHT30;65980;44.898;8.602;2023-06-22T00:15:30;23.48;52.30
77052;SHT30;65980;44.898;8.602;2023-06-22T00:18:38;23.54;52.31
77052;SHT30;65980;44.898;8.602;2023-06-22T00:21:41;23.44;52.07
77052;SHT30;65980;44.898;8.602;2023-06-22T00:24:54;23.43;51.89
77052;SHT30;65980;44.898;8.602;2023-06-22T00:28:04;23.10;52.80
77052;SHT30;65980;44.898;8.602;2023-06-22T00:31:20;23.23;52.26
77052;SHT30;65980;44.898;8.602;2023-06-22T00:34:49;23.04;52.71
77052;SHT30;65980;44.898;8.602;2023-06-22T00:38:02;22.81;53.45
77052;SHT30;65980;44.898;8.602;2023-06-22T00:41:18;22.57;54.41
77052;SHT30;65980;44.898;8.602;2023-06-22T00:44:28;22.59;54.33
77052;SHT30;65980;44.898;8.602;2023-06-22T00:47:41;22.59;54.63
77052;SHT30;65980;44.898;8.602;2023-06-22T00:50:52;22.83;53.66
77052;SHT30;65980;44.898;8.602;2023-06-22T00:53:59;22.73;54.02
77052;SHT30;65980;44.898;8.602;2023-06-22T00:57:07;22.93;53.90
77052;SHT30;65980;44.898;8.602;2023-06-22T01:00:22;22.91;54.42
77052;SHT30;65980;44.898;8.602;2023-06-22T01:03:44;23.02;54.04
77052;SHT30;65980;44.898;8.602;2023-06-22T01:07:47;22.59;54.94
77052;SHT30;65980;44.898;8.602;2023-06-22T01:14:42;22.40;56.75
77052;SHT30;65980;44.898;8.602;2023-06-22T01:17:56;22.23;56.88
77052;SHT30;65980;44.898;8.602;2023-06-22T01:21:01;22.59;55.31
77052;SHT30;65980;44.898;8.602;2023-06-22T01:24:27;22.44;56.18
77052;SHT30;65980;44.898;8.602;2023-06-22T01:31:05;22.37;56.22
77052;SHT30;65980;44.898;8.602;2023-06-22T01:34:38;22.44;56.10
77052;SHT30;65980;44.898;8.602;2023-06-22T01:37:49;22.29;56.95
77052;SHT30;65980;44.898;8.602;2023-06-22T01:41:02;22.23;57.61
77052;SHT30;65980;44.898;8.602;2023-06-22T01:44:16;22.07;58.39
77052;SHT30;65980;44.898;8.602;2023-06-22T01:47:34;21.72;58.26
77052;SHT30;65980;44.898;8.602;2023-06-22T01:50:44;21.92;58.98
77052;SHT30;65980;44.898;8.602;2023-06-22T01:54:06;22.10;57.28
77052;SHT30;65980;44.898;8.602;2023-06-22T01:57:12;22.18;57.31
77052;SHT30;65980;44.898;8.602;2023-06-22T02:00:23;22.24;56.45
77052;SHT30;65980;44.898;8.602;2023-06-22T02:03:31;22.29;56.58
77052;SHT30;65980;44.898;8.602;2023-06-22T02:06:49;22.38;56.57
77052;SHT30;65980;44.898;8.602;2023-06-22T02:09:58;22.38;56.79
77052;SHT30;65980;44.898;8.602;2023-06-22T02:13:30;22.37;56.73
77052;SHT30;65980;44.898;8.602;2023-06-22T02:16:43;22.34;57.22
77052;SHT30;65980;44.898;8.602;2023-06-22T02:19:48;22.27;56.94
77052;SHT30;65980;44.898;8.602;2023-06-22T02:22:52;22.21;57.30
77052;SHT30;65980;44.898;8.602;2023-06-22T02:25:57;22.18;56.93
77052;SHT30;65980;44.898;8.602;2023-06-22T02:29:01;22.24;56.54
77052;SHT30;65980;44.898;8.602;2023-06-22T02:32:11;21.79;57.54
77052;SHT30;65980;44.898;8.602;2023-06-22T02:35:21;21.72;57.85
77052;SHT30;65980;44.898;8.602;2023-06-22T02:38:31;21.74;58.91
77052;SHT30;65980;44.898;8.602;2023-06-22T02:45:43;21.79;58.25
77052;SHT30;65980;44.898;8.602;2023-06-22T02:48:59;21.88;58.17
77052;SHT30;65980;44.898;8.602;2023-06-22T02:51:50;21.79;58.52
77052;SHT30;65980;44.898;8.602;2023-06-22T02:54:57;21.79;58.29
77052;SHT30;65980;44.898;8.602;2023-06-22T02:58:01;21.83;58.66
77052;SHT30;65980;44.898;8.602;2023-06-22T03:01:10;21.81;58.35
77052;SHT30;65980;44.898;8.602;2023-06-22T03:04:17;21.92;58.41
77052;SHT30;65980;44.898;8.602;2023-06-22T03:07:22;21.81;58.52
77052;SHT30;65980;44.898;8.602;2023-06-22T03:10:28;21.90;58.88
77052;SHT30;65980;44.898;8.602;2023-06-22T03:13:31;21.99;58.99
77052;SHT30;65980;44.898;8.602;2023-06-22T03:16:36;21.79;59.79
77052;SHT30;65980;44.898;8.602;2023-06-22T03:19:41;21.82;60.04
77052;SHT30;65980;44.898;8.602;2023-06-22T03:22:45;21.94;58.27
77052;SHT30;65980;44.898;8.602;2023-06-22T03:25:49;21.94;57.97
77052;SHT30;65980;44.898;8.602;2023-06-22T03:28:52;21.74;58.71
77052;SHT30;65980;44.898;8.602;2023-06-22T03:31:57;21.63;58.75
77052;SHT30;65980;44.898;8.602;2023-06-22T03:35:02;21.65;57.84
77052;SHT30;65980;44.898;8.602;2023-06-22T03:38:08;21.81;58.32
77052;SHT30;65980;44.898;8.602;2023-06-22T03:41:12;21.99;56.59
77052;SHT30;65980;44.898;8.602;2023-06-22T03:44:15;21.92;56.94
77052;SHT30;65980;44.898;8.602;2023-06-22T03:47:21;21.68;57.01
77052;SHT30;65980;44.898;8.602;2023-06-22T03:50:26;21.76;57.08
77052;SHT30;65980;44.898;8.602;2023-06-22T03:53:31;21.82;56.38
77052;SHT30;65980;44.898;8.602;2023-06-22T03:56:36;21.79;57.20
77052;SHT30;65980;44.898;8.602;2023-06-22T03:59:41;21.66;57.53
77052;SHT30;65980;44.898;8.602;2023-06-22T04:03:01;21.76;58.24
77052;SHT30;65980;44.898;8.602;2023-06-22T04:06:06;21.85;57.69
77052;SHT30;65980;44.898;8.602;2023-06-22T04:09:14;21.93;56.72
77052;SHT30;65980;44.898;8.602;2023-06-22T04:12:24;21.88;56.71
77052;SHT30;65980;44.898;8.602;2023-06-22T04:15:30;21.45;58.09
77052;SHT30;65980;44.898;8.602;2023-06-22T04:18:36;21.35;57.80
77052;SHT30;65980;44.898;8.602;2023-06-22T04:21:43;21.21;58.48
77052;SHT30;65980;44.898;8.602;2023-06-22T04:25:06;21.30;59.21
77052;SHT30;65980;44.898;8.602;2023-06-22T04:28:19;21.37;58.83
77052;SHT30;65980;44.898;8.602;2023-06-22T04:31:29;21.38;58.63
77052;SHT30;65980;44.898;8.602;2023-06-22T04:34:38;21.35;58.02
77052;SHT30;65980;44.898;8.602;2023-06-22T04:37:47;21.23;58.98
77052;SHT30;65980;44.898;8.602;2023-06-22T04:41:18;21.15;58.76
77052;SHT30;65980;44.898;8.602;2023-06-22T04:44:29;21.00;59.98
77052;SHT30;65980;44.898;8.602;2023-06-22T04:47:36;20.96;60.69
77052;SHT30;65980;44.898;8.602;2023-06-22T04:50:46;20.89;61.57
77052;SHT30;65980;44.898;8.602;2023-06-22T04:53:54;20.76;62.89
77052;SHT30;65980;44.898;8.602;2023-06-22T04:57:08;20.75;64.25
77052;SHT30;65980;44.898;8.602;2023-06-22T05:00:25;20.62;66.47
77052;SHT30;65980;44.898;8.602;2023-06-22T05:03:31;20.62;68.36
77052;SHT30;65980;44.898;8.602;2023-06-22T05:06:36;20.52;69.91
77052;SHT30;65980;44.898;8.602;2023-06-22T05:09:48;20.52;69.78
77052;SHT30;65980;44.898;8.602;2023-06-22T05:12:56;20.53;69.68
77052;SHT30;65980;44.898;8.602;2023-06-22T05:16:04;20.51;70.09
77052;SHT30;65980;44.898;8.602;2023-06-22T05:19:41;20.68;69.31
77052;SHT30;65980;44.898;8.602;2023-06-22T05:23:06;20.93;68.39
77052;SHT30;65980;44.898;8.602;2023-06-22T05:26:15;20.87;67.98
77052;SHT30;65980;44.898;8.602;2023-06-22T05:29:19;20.99;66.99
77052;SHT30;65980;44.898;8.602;2023-06-22T05:36:24;20.97;66.45
77052;SHT30;65980;44.898;8.602;2023-06-22T05:39:28;21.06;65.53
77052;SHT30;65980;44.898;8.602;2023-06-22T05:42:35;21.11;65.36
77052;SHT30;65980;44.898;8.602;2023-06-22T05:49:34;21.42;65.30
77052;SHT30;65980;44.898;8.602;2023-06-22T05:52:41;21.68;63.75
77052;SHT30;65980;44.898;8.602;2023-06-22T05:59:24;22.30;62.33
77052;SHT30;65980;44.898;8.602;2023-06-22T06:02:36;22.47;62.56
77052;SHT30;65980;44.898;8.602;2023-06-22T06:05:51;22.65;61.89
77052;SHT30;65980;44.898;8.602;2023-06-22T06:08:56;22.81;61.34
77052;SHT30;65980;44.898;8.602;2023-06-22T06:12:07;22.92;60.97
77052;SHT30;65980;44.898;8.602;2023-06-22T06:15:12;23.11;60.82
77052;SHT30;65980;44.898;8.602;2023-06-22T06:18:18;23.31;60.37
77052;SHT30;65980;44.898;8.602;2023-06-22T06:21:24;23.14;59.23
77052;SHT30;65980;44.898;8.602;2023-06-22T06:24:56;23.31;58.83
77052;SHT30;65980;44.898;8.602;2023-06-22T06:28:03;23.65;57.24
77052;SHT30;65980;44.898;8.602;2023-06-22T06:31:07;23.30;55.07
77052;SHT30;65980;44.898;8.602;2023-06-22T06:37:56;23.99;55.56
77052;SHT30;65980;44.898;8.602;2023-06-22T06:41:00;24.20;55.64
77052;SHT30;65980;44.898;8.602;2023-06-22T06:44:07;24.19;53.66
77052;SHT30;65980;44.898;8.602;2023-06-22T06:47:11;24.30;54.22
77052;SHT30;65980;44.898;8.602;2023-06-22T06:50:16;24.50;52.73
77052;SHT30;65980;44.898;8.602;2023-06-22T06:53:23;24.79;52.69
77052;SHT30;65980;44.898;8.602;2023-06-22T06:56:27;24.99;51.84
77052;SHT30;65980;44.898;8.602;2023-06-22T06:59:32;24.95;51.41
77052;SHT30;65980;44.898;8.602;2023-06-22T07:02:35;24.82;51.62
77052;SHT30;65980;44.898;8.602;2023-06-22T07:05:39;24.69;52.20
77052;SHT30;65980;44.898;8.602;2023-06-22T07:08:43;24.89;52.70
77052;SHT30;65980;44.898;8.602;2023-06-22T07:12:32;24.75;52.66
77052;SHT30;65980;44.898;8.602;2023-06-22T07:19:30;24.83;52.89
77052;SHT30;65980;44.898;8.602;2023-06-22T07:22:51;25.08;54.14
77052;SHT30;65980;44.898;8.602;2023-06-22T07:25:55;25.24;52.08
77052;SHT30;65980;44.898;8.602;2023-06-22T07:29:02;25.44;52.04
77052;SHT30;65980;44.898;8.602;2023-06-22T07:32:07;25.27;48.88
77052;SHT30;65980;44.898;8.602;2023-06-22T07:35:15;25.45;49.29
77052;SHT30;65980;44.898;8.602;2023-06-22T07:38:21;25.44;49.46
77052;SHT30;65980;44.898;8.602;2023-06-22T07:41:25;25.48;50.40
77052;SHT30;65980;44.898;8.602;2023-06-22T07:44:41;25.53;50.46
77052;SHT30;65980;44.898;8.602;2023-06-22T07:47:59;25.64;50.59
77052;SHT30;65980;44.898;8.602;2023-06-22T07:51:15;25.89;49.37
77052;SHT30;65980;44.898;8.602;2023-06-22T07:54:20;26.19;49.67
77052;SHT30;65980;44.898;8.602;2023-06-22T07:57:52;26.51;49.25
77052;SHT30;65980;44.898;8.602;2023-06-22T08:00:56;26.58;49.26
77052;SHT30;65980;44.898;8.602;2023-06-22T08:04:00;26.68;49.03
77052;SHT30;65980;44.898;8.602;2023-06-22T08:07:04;26.84;49.35
77052;SHT30;65980;44.898;8.602;2023-06-22T08:10:10;26.89;50.66
77052;SHT30;65980;44.898;8.602;2023-06-22T08:13:14;27.00;51.13
77052;SHT30;65980;44.898;8.602;2023-06-22T08:16:19;27.06;50.95
77052;SHT30;65980;44.898;8.602;2023-06-22T08:29:26;27.61;48.85
77052;SHT30;65980;44.898;8.602;2023-06-22T08:32:31;27.99;45.40
77052;SHT30;65980;44.898;8.602;2023-06-22T08:45:21;28.40;40.19
77052;SHT30;65980;44.898;8.602;2023-06-22T08:48:25;28.79;36.67
77052;SHT30;65980;44.898;8.602;2023-06-22T08:51:30;29.32;38.24
77052;SHT30;65980;44.898;8.602;2023-06-22T08:54:36;29.75;37.83
77052;SHT30;65980;44.898;8.602;2023-06-22T08:57:40;30.04;36.18
77052;SHT30;65980;44.898;8.602;2023-06-22T09:00:53;30.11;34.29
77052;SHT30;65980;44.898;8.602;2023-06-22T09:04:11;29.49;35.23
77052;SHT30;65980;44.898;8.602;2023-06-22T09:07:15;29.50;36.38
77052;SHT30;65980;44.898;8.602;2023-06-22T09:10:27;29.20;37.96
77052;SHT30;65980;44.898;8.602;2023-06-22T09:13:32;29.63;36.84
77052;SHT30;65980;44.898;8.602;2023-06-22T09:16:36;29.27;37.49
77052;SHT30;65980;44.898;8.602;2023-06-22T09:19:40;29.87;38.33
77052;SHT30;65980;44.898;8.602;2023-06-22T09:22:44;29.70;39.25
77052;SHT30;65980;44.898;8.602;2023-06-22T09:25:49;29.58;39.03
77052;SHT30;65980;44.898;8.602;2023-06-22T09:28:55;29.81;38.08
77052;SHT30;65980;44.898;8.602;2023-06-22T09:32:01;29.92;39.20
77052;SHT30;65980;44.898;8.602;2023-06-22T09:35:06;29.51;39.38
77052;SHT30;65980;44.898;8.602;2023-06-22T09:38:17;29.68;39.38
77052;SHT30;65980;44.898;8.602;2023-06-22T09:41:21;29.91;40.13
77052;SHT30;65980;44.898;8.602;2023-06-22T09:44:26;29.89;39.92
77052;SHT30;65980;44.898;8.602;2023-06-22T09:47:30;30.46;39.88
77052;SHT30;65980;44.898;8.602;2023-06-22T09:50:34;30.66;38.89
77052;SHT30;65980;44.898;8.602;2023-06-22T09:53:38;30.95;37.91
77052;SHT30;65980;44.898;8.602;2023-06-22T09:56:43;31.19;37.71
77052;SHT30;65980;44.898;8.602;2023-06-22T09:59:48;31.21;36.91
77052;SHT30;65980;44.898;8.602;2023-06-22T10:02:52;31.50;36.03
77052;SHT30;65980;44.898;8.602;2023-06-22T10:05:57;31.74;36.79
77052;SHT30;65980;44.898;8.602;2023-06-22T10:09:01;31.84;38.36
77052;SHT30;65980;44.898;8.602;2023-06-22T10:12:06;31.98;36.35
77052;SHT30;65980;44.898;8.602;2023-06-22T10:15:11;32.07;37.65
77052;SHT30;65980;44.898;8.602;2023-06-22T10:18:16;31.91;37.08
77052;SHT30;65980;44.898;8.602;2023-06-22T10:21:20;32.01;37.37
77052;SHT30;65980;44.898;8.602;2023-06-22T10:24:25;32.04;36.88
77052;SHT30;65980;44.898;8.602;2023-06-22T10:27:32;31.70;38.83
77052;SHT30;65980;44.898;8.602;2023-06-22T10:30:39;31.70;40.29
77052;SHT30;65980;44.898;8.602;2023-06-22T10:33:46;31.83;39.21
77052;SHT30;65980;44.898;8.602;2023-06-22T10:36:51;31.81;39.23
77052;SHT30;65980;44.898;8.602;2023-06-22T10:39:55;31.57;38.81
77052;SHT30;65980;44.898;8.602;2023-06-22T10:43:00;31.67;39.40
77052;SHT30;65980;44.898;8.602;2023-06-22T10:46:04;31.90;39.19
77052;SHT30;65980;44.898;8.602;2023-06-22T10:49:09;32.38;39.47
77052;SHT30;65980;44.898;8.602;2023-06-22T10:52:13;32.63;37.20
77052;SHT30;65980;44.898;8.602;2023-06-22T10:55:18;33.22;36.00
77052;SHT30;65980;44.898;8.602;2023-06-22T10:58:22;33.68;35.95
77052;SHT30;65980;44.898;8.602;2023-06-22T11:01:26;35.57;32.71
77052;SHT30;65980;44.898;8.602;2023-06-22T11:04:30;36.38;31.16
77052;SHT30;65980;44.898;8.602;2023-06-22T11:07:34;36.88;30.79
77052;SHT30;65980;44.898;8.602;2023-06-22T11:10:38;36.52;30.15
77052;SHT30;65980;44.898;8.602;2023-06-22T11:13:42;36.00;31.15
77052;SHT30;65980;44.898;8.602;2023-06-22T11:16:47;35.51;33.23
77052;SHT30;65980;44.898;8.602;2023-06-22T11:19:51;34.65;32.67
77052;SHT30;65980;44.898;8.602;2023-06-22T11:22:55;34.11;34.12
77052;SHT30;65980;44.898;8.602;2023-06-22T11:25:59;33.92;34.64
77052;SHT30;65980;44.898;8.602;2023-06-22T11:29:04;33.94;35.04
77052;SHT30;65980;44.898;8.602;2023-06-22T11:32:11;34.08;34.48
77052;SHT30;65980;44.898;8.602;2023-06-22T11:35:15;33.72;34.64
77052;SHT30;65980;44.898;8.602;2023-06-22T11:38:22;33.07;35.51
77052;SHT30;65980;44.898;8.602;2023-06-22T11:41:27;32.80;36.24
77052;SHT30;65980;44.898;8.602;2023-06-22T11:44:31;32.64;35.99
77052;SHT30;65980;44.898;8.602;2023-06-22T11:47:35;32.86;37.10
77052;SHT30;65980;44.898;8.602;2023-06-22T11:50:40;32.74;36.01
77052;SHT30;65980;44.898;8.602;2023-06-22T11:53:44;32.43;36.09
77052;SHT30;65980;44.898;8.602;2023-06-22T11:56:48;32.86;36.40
77052;SHT30;65980;44.898;8.602;2023-06-22T11:59:52;33.08;35.33
77052;SHT30;65980;44.898;8.602;2023-06-22T12:02:56;32.84;35.32
77052;SHT30;65980;44.898;8.602;2023-06-22T12:06:00;33.06;35.35
77052;SHT30;65980;44.898;8.602;2023-06-22T12:09:05;33.18;35.57
77052;SHT30;65980;44.898;8.602;2023-06-22T12:12:11;33.24;34.25
77052;SHT30;65980;44.898;8.602;2023-06-22T12:15:16;33.24;36.13
77052;SHT30;65980;44.898;8.602;2023-06-22T12:18:21;33.19;33.92
77052;SHT30;65980;44.898;8.602;2023-06-22T12:21:25;33.10;34.10
77052;SHT30;65980;44.898;8.602;2023-06-22T12:24:29;32.90;34.95
77052;SHT30;65980;44.898;8.602;2023-06-22T12:27:34;32.79;35.55
77052;SHT30;65980;44.898;8.602;2023-06-22T12:30:39;32.74;35.01
77052;SHT30;65980;44.898;8.602;2023-06-22T12:33:43;32.81;34.90
77052;SHT30;65980;44.898;8.602;2023-06-22T12:36:47;32.77;35.10
77052;SHT30;65980;44.898;8.602;2023-06-22T12:39:56;32.90;36.03
77052;SHT30;65980;44.898;8.602;2023-06-22T12:43:00;32.46;36.22
77052;SHT30;65980;44.898;8.602;2023-06-22T12:49:43;32.24;37.19
77052;SHT30;65980;44.898;8.602;2023-06-22T12:52:47;32.25;35.83
77052;SHT30;65980;44.898;8.602;2023-06-22T12:55:52;32.59;35.97
77052;SHT30;65980;44.898;8.602;2023-06-22T12:58:57;32.87;35.33
77052;SHT30;65980;44.898;8.602;2023-06-22T13:02:02;32.62;36.53
77052;SHT30;65980;44.898;8.602;2023-06-22T13:05:06;32.69;36.81
77052;SHT30;65980;44.898;8.602;2023-06-22T13:08:10;32.70;35.83
77052;SHT30;65980;44.898;8.602;2023-06-22T13:11:14;32.87;35.50
77052;SHT30;65980;44.898;8.602;2023-06-22T13:14:18;33.01;36.87
77052;SHT30;65980;44.898;8.602;2023-06-22T13:17:22;33.11;36.48
77052;SHT30;65980;44.898;8.602;2023-06-22T13:20:26;32.84;35.64
77052;SHT30;65980;44.898;8.602;2023-06-22T13:23:32;33.12;35.36
77052;SHT30;65980;44.898;8.602;2023-06-22T13:26:36;33.35;35.28
77052;SHT30;65980;44.898;8.602;2023-06-22T13:29:40;33.52;34.51
77052;SHT30;65980;44.898;8.602;2023-06-22T13:32:44;33.58;33.40
77052;SHT30;65980;44.898;8.602;2023-06-22T13:35:48;33.55;32.21
77052;SHT30;65980;44.898;8.602;2023-06-22T13:38:52;33.72;32.87
77052;SHT30;65980;44.898;8.602;2023-06-22T13:41:57;33.69;32.61
77052;SHT30;65980;44.898;8.602;2023-06-22T13:45:01;33.80;32.68
77052;SHT30;65980;44.898;8.602;2023-06-22T13:48:05;34.14;33.37
77052;SHT30;65980;44.898;8.602;2023-06-22T13:51:09;33.98;31.70
77052;SHT30;65980;44.898;8.602;2023-06-22T13:54:13;33.80;32.91
77052;SHT30;65980;44.898;8.602;2023-06-22T13:57:17;33.68;31.56
77052;SHT30;65980;44.898;8.602;2023-06-22T14:00:21;33.41;32.85
77052;SHT30;65980;44.898;8.602;2023-06-22T14:03:26;33.34;31.55
77052;SHT30;65980;44.898;8.602;2023-06-22T14:06:32;33.53;32.05
77052;SHT30;65980;44.898;8.602;2023-06-22T14:09:36;33.65;31.76
77052;SHT30;65980;44.898;8.602;2023-06-22T14:12:40;33.55;32.75
77052;SHT30;65980;44.898;8.602;2023-06-22T14:15:44;33.68;32.36
77052;SHT30;65980;44.898;8.602;2023-06-22T14:18:49;33.55;32.54
77052;SHT30;65980;44.898;8.602;2023-06-22T14:21:53;33.51;33.46
77052;SHT30;65980;44.898;8.602;2023-06-22T14:24:57;33.28;33.18
77052;SHT30;65980;44.898;8.602;2023-06-22T14:28:02;33.11;33.93
77052;SHT30;65980;44.898;8.602;2023-06-22T14:31:06;33.01;33.89
77052;SHT30;65980;44.898;8.602;2023-06-22T14:34:11;33.06;33.91
77052;SHT30;65980;44.898;8.602;2023-06-22T14:37:15;33.14;34.56
77052;SHT30;65980;44.898;8.602;2023-06-22T14:40:20;33.07;33.78
77052;SHT30;65980;44.898;8.602;2023-06-22T14:43:24;33.12;35.01
77052;SHT30;65980;44.898;8.602;2023-06-22T14:46:29;33.41;34.89
77052;SHT30;65980;44.898;8.602;2023-06-22T14:49:36;33.69;33.77
77052;SHT30;65980;44.898;8.602;2023-06-22T14:52:42;33.59;33.67
77052;SHT30;65980;44.898;8.602;2023-06-22T14:55:46;33.39;33.07
77052;SHT30;65980;44.898;8.602;2023-06-22T14:58:55;33.53;32.43
77052;SHT30;65980;44.898;8.602;2023-06-22T15:01:59;33.38;33.36
77052;SHT30;65980;44.898;8.602;2023-06-22T15:05:03;33.65;33.45
77052;SHT30;65980;44.898;8.602;2023-06-22T15:08:07;33.79;32.66
77052;SHT30;65980;44.898;8.602;2023-06-22T15:11:12;33.63;33.50
77052;SHT30;65980;44.898;8.602;2023-06-22T15:14:16;33.59;33.43
77052;SHT30;65980;44.898;8.602;2023-06-22T15:17:21;33.55;33.86
77052;SHT30;65980;44.898;8.602;2023-06-22T15:20:25;33.42;34.47
77052;SHT30;65980;44.898;8.602;2023-06-22T15:23:32;33.12;33.55
77052;SHT30;65980;44.898;8.602;2023-06-22T15:26:36;33.22;34.87
77052;SHT30;65980;44.898;8.602;2023-06-22T15:29:40;33.21;34.93
77052;SHT30;65980;44.898;8.602;2023-06-22T15:32:45;33.34;35.76
77052;SHT30;65980;44.898;8.602;2023-06-22T15:35:55;33.49;34.53
77052;SHT30;65980;44.898;8.602;2023-06-22T15:42:30;33.19;33.88
77052;SHT30;65980;44.898;8.602;2023-06-22T15:46:05;33.08;34.19
77052;SHT30;65980;44.898;8.602;2023-06-22T15:49:21;32.64;35.56
77052;SHT30;65980;44.898;8.602;2023-06-22T15:52:30;32.51;35.48
77052;SHT30;65980;44.898;8.602;2023-06-22T15:55:40;32.74;36.03
77052;SHT30;65980;44.898;8.602;2023-06-22T15:58:47;32.96;35.71
77052;SHT30;65980;44.898;8.602;2023-06-22T16:01:51;32.84;35.51
77052;SHT30;65980;44.898;8.602;2023-06-22T16:05:02;32.48;35.93
77052;SHT30;65980;44.898;8.602;2023-06-22T16:08:09;32.51;36.53
77052;SHT30;65980;44.898;8.602;2023-06-22T16:11:16;32.38;36.77
77052;SHT30;65980;44.898;8.602;2023-06-22T16:14:20;32.19;36.97
77052;SHT30;65980;44.898;8.602;2023-06-22T16:17:25;32.18;36.57
77052;SHT30;65980;44.898;8.602;2023-06-22T16:20:31;32.11;36.70
77052;SHT30;65980;44.898;8.602;2023-06-22T16:23:35;31.70;37.20
77052;SHT30;65980;44.898;8.602;2023-06-22T16:26:40;31.72;37.18
77052;SHT30;65980;44.898;8.602;2023-06-22T16:29:44;31.62;36.43
77052;SHT30;65980;44.898;8.602;2023-06-22T16:33:04;31.50;36.97
77052;SHT30;65980;44.898;8.602;2023-06-22T16:36:09;31.57;36.88
77052;SHT30;65980;44.898;8.602;2023-06-22T16:39:14;31.51;37.69
77052;SHT30;65980;44.898;8.602;2023-06-22T16:42:24;31.59;37.94
77052;SHT30;65980;44.898;8.602;2023-06-22T16:45:30;31.46;37.93
77052;SHT30;65980;44.898;8.602;2023-06-22T16:48:49;31.35;37.47
77052;SHT30;65980;44.898;8.602;2023-06-22T16:52:26;31.49;35.25
77052;SHT30;65980;44.898;8.602;2023-06-22T16:55:30;31.36;34.88
77052;SHT30;65980;44.898;8.602;2023-06-22T16:58:42;31.28;33.65
77052;SHT30;65980;44.898;8.602;2023-06-22T17:01:51;31.15;33.94
77052;SHT30;65980;44.898;8.602;2023-06-22T17:04:58;31.12;33.08
77052;SHT30;65980;44.898;8.602;2023-06-22T17:08:06;31.11;33.12
77052;SHT30;65980;44.898;8.602;2023-06-22T17:11:19;31.07;33.65
77052;SHT30;65980;44.898;8.602;2023-06-22T17:14:24;30.98;33.80
77052;SHT30;65980;44.898;8.602;2023-06-22T17:17:32;30.75;33.63
77052;SHT30;65980;44.898;8.602;2023-06-22T17:20:58;30.70;34.33
77052;SHT30;65980;44.898;8.602;2023-06-22T17:24:16;30.85;34.36
77052;SHT30;65980;44.898;8.602;2023-06-22T17:27:29;30.83;35.14
77052;SHT30;65980;44.898;8.602;2023-06-22T17:31:01;30.81;35.36
77052;SHT30;65980;44.898;8.602;2023-06-22T17:34:08;30.68;35.34
77052;SHT30;65980;44.898;8.602;2023-06-22T17:37:13;30.57;35.86
77052;SHT30;65980;44.898;8.602;2023-06-22T17:40:21;30.52;36.12
77052;SHT30;65980;44.898;8.602;2023-06-22T17:43:45;30.40;36.61
77052;SHT30;65980;44.898;8.602;2023-06-22T17:46:52;30.29;37.13
77052;SHT30;65980;44.898;8.602;2023-06-22T17:50:05;30.28;37.69
77052;SHT30;65980;44.898;8.602;2023-06-22T17:53:18;30.15;37.71
77052;SHT30;65980;44.898;8.602;2023-06-22T17:56:25;30.04;37.99
77052;SHT30;65980;44.898;8.602;2023-06-22T17:59:33;29.97;38.27
77052;SHT30;65980;44.898;8.602;2023-06-22T18:02:42;29.94;38.69
77052;SHT30;65980;44.898;8.602;2023-06-22T18:05:47;29.95;39.15
77052;SHT30;65980;44.898;8.602;2023-06-22T18:09:03;29.98;39.53
77052;SHT30;65980;44.898;8.602;2023-06-22T18:12:16;29.95;40.34
77052;SHT30;65980;44.898;8.602;2023-06-22T18:15:29;29.82;41.28
77052;SHT30;65980;44.898;8.602;2023-06-22T18:18:42;29.73;41.73
77052;SHT30;65980;44.898;8.602;2023-06-22T18:22:01;29.66;41.06
77052;SHT30;65980;44.898;8.602;2023-06-22T18:25:13;29.60;41.64
77052;SHT30;65980;44.898;8.602;2023-06-22T18:28:18;29.56;41.19
77052;SHT30;65980;44.898;8.602;2023-06-22T18:31:22;29.53;40.98
77052;SHT30;65980;44.898;8.602;2023-06-22T18:34:29;29.47;41.02
77052;SHT30;65980;44.898;8.602;2023-06-22T18:37:48;29.53;40.92
77052;SHT30;65980;44.898;8.602;2023-06-22T18:41:01;29.58;40.39
77052;SHT30;65980;44.898;8.602;2023-06-22T18:44:07;29.49;40.55
77052;SHT30;65980;44.898;8.602;2023-06-22T18:47:25;29.29;40.60
77052;SHT30;65980;44.898;8.602;2023-06-22T18:50:35;29.27;40.48
77052;SHT30;65980;44.898;8.602;2023-06-22T18:53:39;29.19;40.68
77052;SHT30;65980;44.898;8.602;2023-06-22T18:56:52;29.16;40.80
77052;SHT30;65980;44.898;8.602;2023-06-22T19:00:02;29.05;40.81
77052;SHT30;65980;44.898;8.602;2023-06-22T19:03:35;28.98;40.68
77052;SHT30;65980;44.898;8.602;2023-06-22T19:10:20;28.81;40.87
77052;SHT30;65980;44.898;8.602;2023-06-22T19:13:25;28.70;40.75
77052;SHT30;65980;44.898;8.602;2023-06-22T19:16:32;28.70;40.81
77052;SHT30;65980;44.898;8.602;2023-06-22T19:19:37;28.61;40.98
77052;SHT30;65980;44.898;8.602;2023-06-22T19:22:43;28.60;41.04
77052;SHT30;65980;44.898;8.602;2023-06-22T19:25:59;28.50;41.23
77052;SHT30;65980;44.898;8.602;2023-06-22T19:29:14;28.44;41.34
77052;SHT30;65980;44.898;8.602;2023-06-22T19:32:21;28.32;41.76
77052;SHT30;65980;44.898;8.602;2023-06-22T19:35:24;28.29;41.80
77052;SHT30;65980;44.898;8.602;2023-06-22T19:38:30;28.20;42.24
77052;SHT30;65980;44.898;8.602;2023-06-22T19:41:38;28.08;42.43
77052;SHT30;65980;44.898;8.602;2023-06-22T19:44:47;27.96;42.68
77052;SHT30;65980;44.898;8.602;2023-06-22T19:47:56;27.88;42.98
77052;SHT30;65980;44.898;8.602;2023-06-22T19:51:08;27.76;43.27
77052;SHT30;65980;44.898;8.602;2023-06-22T19:54:13;27.80;42.48
77052;SHT30;65980;44.898;8.602;2023-06-22T19:57:18;27.72;42.27
77052;SHT30;65980;44.898;8.602;2023-06-22T20:00:23;27.72;42.48
77052;SHT30;65980;44.898;8.602;2023-06-22T20:03:32;27.65;42.08
77052;SHT30;65980;44.898;8.602;2023-06-22T20:06:39;27.62;41.98
77052;SHT30;65980;44.898;8.602;2023-06-22T20:10:11;27.49;42.56
77052;SHT30;65980;44.898;8.602;2023-06-22T20:13:18;27.51;42.16
77052;SHT30;65980;44.898;8.602;2023-06-22T20:16:45;27.42;42.65
77052;SHT30;65980;44.898;8.602;2023-06-22T20:19:52;27.30;42.41
77052;SHT30;65980;44.898;8.602;2023-06-22T20:23:05;27.32;42.91
77052;SHT30;65980;44.898;8.602;2023-06-22T20:29:28;27.29;42.46
77052;SHT30;65980;44.898;8.602;2023-06-22T20:32:46;27.23;42.49
77052;SHT30;65980;44.898;8.602;2023-06-22T20:35:52;27.17;42.49
77052;SHT30;65980;44.898;8.602;2023-06-22T20:38:57;26.96;43.38
77052;SHT30;65980;44.898;8.602;2023-06-22T20:45:15;26.85;43.50
77052;SHT30;65980;44.898;8.602;2023-06-22T20:48:23;26.89;43.53
77052;SHT30;65980;44.898;8.602;2023-06-22T20:51:30;26.74;44.15
77052;SHT30;65980;44.898;8.602;2023-06-22T20:54:35;26.62;44.58
77052;SHT30;65980;44.898;8.602;2023-06-22T20:57:40;26.54;44.99